createdAt,value
2018-03-28T00:02:00.963Z,24.40
2018-03-28T00:04:28.483Z,28.15
2018-03-28T00:06:55.980Z,26.60
2018-03-28T00:09:23.471Z,26.85
2018-03-28T00:11:51.731Z,25.58
2018-03-28T00:14:19.252Z,22.60
2018-03-28T00:16:46.754Z,25.67
2018-03-28T00:19:15.030Z,22.42
2018-03-28T00:21:43.342Z,27.00
2018-03-28T00:24:10.847Z,27.08
2018-03-28T00:26:38.393Z,21.62
2018-03-28T00:29:05.859Z,22.17
2018-03-28T00:31:33.378Z,27.65
2018-03-28T00:34:00.867Z,23.25
2018-03-28T00:36:28.397Z,24.58
2018-03-28T00:38:55.924Z,23.95
2018-03-28T00:41:24.187Z,25.80
2018-03-28T00:43:51.680Z,24.10
2018-03-28T00:46:19.178Z,27.00
2018-03-28T00:48:46.695Z,25.90
2018-03-28T00:51:26.732Z,24.60
2018-03-28T00:53:55.010Z,23.33
2018-03-28T00:56:22.555Z,27.00
2018-03-28T00:58:50.052Z,24.77
2018-03-28T01:01:17.559Z,23.55
2018-03-28T01:03:45.064Z,24.10
2018-03-28T01:06:12.567Z,25.48
2018-03-28T01:08:40.060Z,25.80
2018-03-28T01:11:08.326Z,24.25
2018-03-28T01:13:36.612Z,25.73
2018-03-28T01:16:04.867Z,24.52
2018-03-28T01:18:32.379Z,25.05
2018-03-28T01:20:59.894Z,24.15
2018-03-28T01:23:28.163Z,23.73
2018-03-28T01:25:57.175Z,25.73
2018-03-28T01:28:25.451Z,27.73
2018-03-28T01:30:53.722Z,22.40
2018-03-28T01:33:21.994Z,25.50
2018-03-28T01:35:50.256Z,24.95
2018-03-28T01:38:17.750Z,23.50
2018-03-28T01:40:45.295Z,28.17
2018-03-28T01:43:13.559Z,27.65
2018-03-28T01:45:41.839Z,26.12
2018-03-28T01:48:09.366Z,27.58
2018-03-28T01:50:36.866Z,28.25
2018-03-28T01:53:05.134Z,27.98
2018-03-28T01:55:33.416Z,27.15
2018-03-28T01:58:01.671Z,25.90
2018-03-28T02:00:29.167Z,24.35
2018-03-28T02:02:56.663Z,22.00
2018-03-28T02:05:24.162Z,30.50
2018-03-28T02:07:52.431Z,27.33
2018-03-28T02:10:20.698Z,27.23
2018-03-28T02:12:48.188Z,29.12
2018-03-28T02:15:16.455Z,26.90
2018-03-28T02:17:44.723Z,29.48
2018-03-28T02:20:13.003Z,30.37
2018-03-28T02:22:41.271Z,26.50
2018-03-28T02:25:08.766Z,28.60
2018-03-28T02:27:36.271Z,30.20
2018-03-28T02:30:04.127Z,25.33
2018-03-28T02:32:31.639Z,25.70
2018-03-28T02:34:59.136Z,26.17
2018-03-28T02:37:26.639Z,27.73
2018-03-28T02:39:54.908Z,24.98
2018-03-28T02:42:23.177Z,25.70
2018-03-28T02:44:50.682Z,25.70
2018-03-28T02:47:18.184Z,30.52
2018-03-28T02:49:45.698Z,26.23
2018-03-28T02:52:13.266Z,25.55
2018-03-28T02:54:40.783Z,28.77
2018-03-28T02:57:09.047Z,29.73
2018-03-28T02:59:37.327Z,31.92
2018-03-28T03:02:04.841Z,28.50
2018-03-28T03:04:32.339Z,28.00
2018-03-28T03:06:59.855Z,27.33
2018-03-28T03:09:27.347Z,28.40
2018-03-28T03:11:54.964Z,28.35
2018-03-28T03:14:22.463Z,31.58
2018-03-28T03:16:51.479Z,25.42
2018-03-28T03:19:19.743Z,28.58
2018-03-28T03:21:47.259Z,29.63
2018-03-28T03:24:14.755Z,32.10
2018-03-28T03:26:42.251Z,31.23
2018-03-28T03:29:09.763Z,29.83
2018-03-28T03:31:37.287Z,28.92
2018-03-28T03:34:04.784Z,34.53
2018-03-28T03:36:32.300Z,29.87
2018-03-28T03:38:59.823Z,32.83
2018-03-28T03:41:28.092Z,39.65
2018-03-28T03:43:55.593Z,106.25
2018-03-28T03:46:23.107Z,126.90
2018-03-28T03:48:50.605Z,39.05
2018-03-28T03:51:18.114Z,136.00
2018-03-28T03:53:45.632Z,161.55
2018-03-28T03:56:13.131Z,59.80
2018-03-28T03:58:40.646Z,53.17
2018-03-28T04:01:08.165Z,29.33
2018-03-28T04:03:36.440Z,27.50
2018-03-28T04:06:04.703Z,30.40
2018-03-28T04:08:32.210Z,27.70
2018-03-28T04:10:59.710Z,26.67
2018-03-28T04:13:27.230Z,25.30
2018-03-28T04:15:54.747Z,26.85
2018-03-28T04:18:22.243Z,26.25
2018-03-28T04:20:49.751Z,23.48
2018-03-28T04:23:17.259Z,25.48
2018-03-28T04:25:44.750Z,27.30
2018-03-28T04:28:12.256Z,27.33
2018-03-28T04:30:40.534Z,26.30
2018-03-28T04:33:08.924Z,32.47
2018-03-28T04:35:36.432Z,47.53
2018-03-28T04:38:03.930Z,33.75
2018-03-28T04:40:31.439Z,34.63
2018-03-28T04:42:58.938Z,35.88
2018-03-28T04:45:27.219Z,55.28
2018-03-28T04:47:55.503Z,29.05
2018-03-28T04:50:23.767Z,31.12
2018-03-28T04:52:52.044Z,42.38
2018-03-28T04:55:20.315Z,35.38
2018-03-28T04:57:48.600Z,43.45
2018-03-28T05:00:16.906Z,30.48
2018-03-28T05:02:44.418Z,46.10
2018-03-28T05:05:11.913Z,84.05
2018-03-28T05:07:39.423Z,101.60
2018-03-28T05:10:07.041Z,104.78
2018-03-28T05:12:34.536Z,71.05
2018-03-28T05:15:02.043Z,221.95
2018-03-28T05:17:29.564Z,251.45
2018-03-28T05:19:57.066Z,118.50
2018-03-28T05:22:24.584Z,61.15
2018-03-28T05:24:52.092Z,193.10
2018-03-28T05:27:19.606Z,111.60
2018-03-28T05:29:47.105Z,167.40
2018-03-28T05:32:14.595Z,46.95
2018-03-28T05:34:42.092Z,259.75
2018-03-28T05:37:10.368Z,200.60
2018-03-28T05:39:38.884Z,222.25
2018-03-28T05:42:06.581Z,320.10
2018-03-28T05:44:34.083Z,177.18
2018-03-28T05:47:02.364Z,158.18
2018-03-28T05:49:29.872Z,204.50
2018-03-28T05:51:57.371Z,192.10
2018-03-28T05:54:25.655Z,202.87
2018-03-28T05:56:53.226Z,303.20
2018-03-28T05:59:20.683Z,300.40
2018-03-28T06:01:48.198Z,317.37
2018-03-28T06:04:15.707Z,269.40
2018-03-28T06:06:43.205Z,267.87
2018-03-28T06:09:10.715Z,266.00
2018-03-28T06:11:38.230Z,176.50
2018-03-28T06:14:05.748Z,323.77
2018-03-28T06:16:33.256Z,145.60
2018-03-28T06:19:00.758Z,177.27
2018-03-28T06:21:28.279Z,79.25
2018-03-28T06:23:56.555Z,312.17
2018-03-28T06:26:24.871Z,197.15
2018-03-28T06:28:52.378Z,262.65
2018-03-28T06:31:20.663Z,111.10
2018-03-28T06:33:48.155Z,68.57
2018-03-28T06:36:15.712Z,93.35
2018-03-28T06:38:43.966Z,337.38
2018-03-28T06:41:12.231Z,224.55
2018-03-28T06:43:39.733Z,265.33
2018-03-28T06:46:07.235Z,239.90
2018-03-28T06:48:34.736Z,272.05
2018-03-28T06:51:02.243Z,348.70
2018-03-28T06:53:29.745Z,157.12
2018-03-28T06:55:58.006Z,179.98
2018-03-28T06:58:26.275Z,156.98
2018-03-28T07:00:53.772Z,89.03
2018-03-28T07:03:21.287Z,216.32
2018-03-28T07:05:48.788Z,87.12
2018-03-28T07:08:16.295Z,139.55
2018-03-28T07:10:43.814Z,108.37
2018-03-28T07:13:11.351Z,117.37
2018-03-28T07:15:38.928Z,95.32
2018-03-28T07:18:06.479Z,173.13
2018-03-28T07:20:34.203Z,248.70
2018-03-28T07:23:01.807Z,140.00
2018-03-28T07:25:29.384Z,188.18
2018-03-28T07:27:56.948Z,242.20
2018-03-28T07:30:24.506Z,187.02
2018-03-28T07:32:52.084Z,219.35
2018-03-28T07:35:19.650Z,171.30
2018-03-28T07:37:50.930Z,146.80
2018-03-28T07:40:19.247Z,209.00
2018-03-28T07:42:46.765Z,104.35
2018-03-28T07:45:15.069Z,58.63
2018-03-28T07:47:42.618Z,36.63
2018-03-28T07:50:10.200Z,66.90
2018-03-28T07:52:37.726Z,48.72
2018-03-28T07:55:06.102Z,65.37
2018-03-28T07:57:34.447Z,81.50
2018-03-28T08:00:01.997Z,63.13
2018-03-28T08:02:29.559Z,66.90
2018-03-28T08:04:57.143Z,52.10
2018-03-28T08:07:24.721Z,35.65
2018-03-28T08:09:53.042Z,38.20
2018-03-28T08:12:20.691Z,47.50
2018-03-28T08:14:48.336Z,43.42
2018-03-28T08:17:15.898Z,32.95
2018-03-28T08:19:43.462Z,28.30
2018-03-28T08:22:11.013Z,34.08
2018-03-28T08:24:38.709Z,42.45
2018-03-28T08:27:06.273Z,33.10
2018-03-28T08:29:33.858Z,35.63
2018-03-28T08:32:01.399Z,31.48
2018-03-28T08:34:28.958Z,34.75
2018-03-28T08:36:56.509Z,35.72
2018-03-28T08:39:24.161Z,35.20
2018-03-28T08:41:51.742Z,36.00
2018-03-28T08:44:19.357Z,42.45
2018-03-28T08:46:47.251Z,35.33
2018-03-28T08:49:14.907Z,38.72
2018-03-28T08:51:42.482Z,34.00
2018-03-28T08:54:10.034Z,34.22
2018-03-28T08:56:37.599Z,36.60
2018-03-28T08:59:05.165Z,31.33
2018-03-28T09:01:32.711Z,29.95
2018-03-28T09:04:00.377Z,29.67
2018-03-28T09:06:27.899Z,28.65
2018-03-28T09:08:56.212Z,32.67
2018-03-28T09:11:23.768Z,31.50
2018-03-28T09:13:51.406Z,31.08
2018-03-28T09:16:19.104Z,28.38
2018-03-28T09:18:46.746Z,28.83
2018-03-28T09:21:14.327Z,32.72
2018-03-28T09:23:41.936Z,31.20
2018-03-28T09:26:10.225Z,32.90
2018-03-28T09:28:37.823Z,34.03
2018-03-28T09:31:05.413Z,31.08
2018-03-28T09:33:32.969Z,31.08
2018-03-28T09:36:00.531Z,33.78
2018-03-28T09:38:28.095Z,34.72
2018-03-28T09:40:55.629Z,33.30
2018-03-28T09:43:23.182Z,35.05
2018-03-28T09:45:50.724Z,31.55
2018-03-28T09:48:18.247Z,29.40
2018-03-28T09:50:46.543Z,33.22
2018-03-28T09:53:14.222Z,31.73
2018-03-28T09:55:41.787Z,31.85
2018-03-28T09:58:09.296Z,32.20
2018-03-28T10:00:36.913Z,33.33
2018-03-28T10:03:10.276Z,31.42
2018-03-28T10:05:38.704Z,31.83
2018-03-28T10:08:06.287Z,30.67
2018-03-28T10:10:33.863Z,29.45
2018-03-28T10:13:02.151Z,27.08
2018-03-28T10:15:29.684Z,29.23
2018-03-28T10:17:57.275Z,25.83
2018-03-28T10:20:26.701Z,32.33
2018-03-28T10:22:54.244Z,24.00
2018-03-28T10:25:21.778Z,27.62
2018-03-28T10:27:50.086Z,29.67
2018-03-28T10:30:17.635Z,28.15
2018-03-28T10:32:45.196Z,25.25
2018-03-28T10:35:12.766Z,25.90
2018-03-28T10:37:41.151Z,27.98
2018-03-28T10:40:08.740Z,23.42
2018-03-28T10:42:37.821Z,25.30
2018-03-28T10:45:05.405Z,27.33
2018-03-28T10:47:33.780Z,24.83
2018-03-28T10:50:01.343Z,24.80
2018-03-28T10:52:28.912Z,25.85
2018-03-28T10:54:57.349Z,22.87
2018-03-28T10:57:24.915Z,12.13
2018-03-28T10:59:52.492Z,12.02
2018-03-28T11:02:20.126Z,11.23
2018-03-28T11:04:47.727Z,11.12
2018-03-28T11:07:15.298Z,8.85
2018-03-28T11:09:42.914Z,9.35
2018-03-28T11:12:10.480Z,9.82
2018-03-28T11:14:38.064Z,12.35
2018-03-28T11:17:05.610Z,9.60
2018-03-28T11:19:33.327Z,8.02
2018-03-28T11:22:00.924Z,9.07
2018-03-28T11:24:28.571Z,9.65
2018-03-28T11:26:56.196Z,7.78
2018-03-28T11:29:24.533Z,8.00
2018-03-28T11:31:52.098Z,9.13
2018-03-28T11:34:19.667Z,9.70
2018-03-28T11:36:47.287Z,8.30
2018-03-28T11:39:14.839Z,7.87
2018-03-28T11:41:42.383Z,8.20
2018-03-28T11:44:09.994Z,8.27
2018-03-28T11:46:37.546Z,8.88
2018-03-28T11:49:05.196Z,7.85
2018-03-28T11:51:32.774Z,7.07
2018-03-28T11:54:00.320Z,6.43
2018-03-28T11:56:27.883Z,5.30
2018-03-28T11:58:55.428Z,5.80
2018-03-28T12:01:23.005Z,5.32
2018-03-28T12:03:50.620Z,5.53
2018-03-28T12:06:18.188Z,6.07
2018-03-28T12:08:45.873Z,7.75
2018-03-28T12:11:13.497Z,5.00
2018-03-28T12:13:41.817Z,5.30
2018-03-28T12:16:09.602Z,4.18
2018-03-28T12:18:37.337Z,4.93
2018-03-28T12:21:04.888Z,4.70
2018-03-28T12:23:32.426Z,5.53
2018-03-28T12:26:00.761Z,4.87
2018-03-28T12:28:28.317Z,4.30
2018-03-28T12:30:55.874Z,4.85
2018-03-28T12:33:23.415Z,5.20
2018-03-28T12:35:50.918Z,4.35
2018-03-28T12:38:18.429Z,4.20
2018-03-28T12:40:45.955Z,5.40
2018-03-28T12:43:14.271Z,5.90
2018-03-28T12:45:41.767Z,5.80
2018-03-28T12:48:09.287Z,6.80
2018-03-28T12:50:36.784Z,7.70
2018-03-28T12:53:05.054Z,7.50
2018-03-28T12:55:32.674Z,8.07
2018-03-28T12:58:00.067Z,13.48
2018-03-28T13:00:27.591Z,11.32
2018-03-28T13:02:55.093Z,8.45
2018-03-28T13:05:22.617Z,8.15
2018-03-28T13:07:50.156Z,21.40
2018-03-28T13:10:18.403Z,8.80
2018-03-28T13:12:46.675Z,5.62
2018-03-28T13:15:14.173Z,5.60
2018-03-28T13:17:41.671Z,4.72
2018-03-28T13:20:09.170Z,5.10
2018-03-28T13:22:37.450Z,5.10
2018-03-28T13:25:04.963Z,5.65
2018-03-28T13:27:32.458Z,5.72
2018-03-28T13:30:00.719Z,5.22
2018-03-28T13:32:28.987Z,4.60
2018-03-28T13:34:56.483Z,4.68
2018-03-28T13:37:24.059Z,4.10
2018-03-28T13:39:51.571Z,8.18
2018-03-28T13:42:19.854Z,7.60
2018-03-28T13:44:48.147Z,7.68
2018-03-28T13:47:16.418Z,5.62
2018-03-28T13:49:44.704Z,5.28
2018-03-28T13:52:12.208Z,8.15
2018-03-28T13:54:39.699Z,4.95
2018-03-28T13:57:07.973Z,4.50
2018-03-28T13:59:35.488Z,6.97
2018-03-28T14:02:02.998Z,5.68
2018-03-28T14:04:31.255Z,7.90
2018-03-28T14:06:58.757Z,5.40
2018-03-28T14:09:26.251Z,5.70
2018-03-28T14:11:53.805Z,5.45
2018-03-28T14:14:21.299Z,7.18
2018-03-28T14:16:49.579Z,6.43
2018-03-28T14:19:17.847Z,6.90
2018-03-28T14:21:45.474Z,6.50
2018-03-28T14:24:12.970Z,6.00
2018-03-28T14:26:41.236Z,7.12
2018-03-28T14:29:08.736Z,6.43
2018-03-28T14:31:36.235Z,5.32
2018-03-28T14:34:03.735Z,5.72
2018-03-28T14:36:31.999Z,6.70
2018-03-28T14:38:59.497Z,6.80
2018-03-28T14:41:27.031Z,6.30
2018-03-28T14:43:55.291Z,6.55
2018-03-28T14:46:23.551Z,6.28
2018-03-28T14:48:51.052Z,8.02
2018-03-28T14:51:18.628Z,8.70
2018-03-28T14:53:46.135Z,6.70
2018-03-28T14:56:13.645Z,13.77
2018-03-28T14:58:41.136Z,7.65
2018-03-28T15:01:08.632Z,5.82
2018-03-28T15:03:36.906Z,6.37
2018-03-28T15:06:05.163Z,6.15
2018-03-28T15:08:32.662Z,7.07
2018-03-28T15:11:00.156Z,7.22
2018-03-28T15:13:27.647Z,6.35
2018-03-28T15:15:55.935Z,7.30
2018-03-28T15:18:24.198Z,7.07
2018-03-28T15:20:52.491Z,6.10
2018-03-28T15:23:20.771Z,6.40
2018-03-28T15:25:49.027Z,6.70
2018-03-28T15:28:16.524Z,8.35
2018-03-28T15:30:44.015Z,6.20
2018-03-28T15:33:11.525Z,6.68
2018-03-28T15:35:39.039Z,6.00
2018-03-28T15:38:06.535Z,6.15
2018-03-28T15:40:34.795Z,9.68
2018-03-28T15:43:02.314Z,7.03
2018-03-28T15:45:29.815Z,8.43
2018-03-28T15:47:58.099Z,5.93
2018-03-28T15:50:26.392Z,6.12
2018-03-28T15:52:53.891Z,5.47
2018-03-28T15:55:21.425Z,8.32
2018-03-28T15:57:48.939Z,28.50
2018-03-28T16:00:17.223Z,11.68
2018-03-28T16:02:45.510Z,8.15
2018-03-28T16:05:13.014Z,6.60
2018-03-28T16:07:40.526Z,6.65
2018-03-28T16:10:08.799Z,6.12
2018-03-28T16:12:36.324Z,6.43
2018-03-28T16:15:03.908Z,9.15
2018-03-28T16:17:31.363Z,14.63
2018-03-28T16:19:59.636Z,16.12
2018-03-28T16:22:27.914Z,14.07
2018-03-28T16:24:55.449Z,9.90
2018-03-28T16:27:23.041Z,11.00
2018-03-28T16:29:51.341Z,10.48
2018-03-28T16:32:19.608Z,11.10
2018-03-28T16:34:47.867Z,5.68
2018-03-28T16:37:16.143Z,6.47
2018-03-28T16:39:44.411Z,6.60
2018-03-28T16:42:11.923Z,8.60
2018-03-28T16:44:39.432Z,6.60
2018-03-28T16:47:07.691Z,9.18
2018-03-28T16:49:35.183Z,8.35
2018-03-28T16:52:03.463Z,7.40
2018-03-28T16:54:31.739Z,5.80
2018-03-28T16:56:59.999Z,7.60
2018-03-28T16:59:27.507Z,7.50
2018-03-28T17:01:55.007Z,6.47
2018-03-28T17:04:22.509Z,13.25
2018-03-28T17:06:50.007Z,15.43
2018-03-28T17:09:17.499Z,9.52
2018-03-28T17:11:45.754Z,7.22
2018-03-28T17:14:13.264Z,11.75
2018-03-28T17:16:40.770Z,9.27
2018-03-28T17:19:08.259Z,8.68
2018-03-28T17:21:36.530Z,7.25
2018-03-28T17:24:04.787Z,6.12
2018-03-28T17:26:32.293Z,7.25
2018-03-28T17:28:59.800Z,7.68
2018-03-28T17:31:27.289Z,8.10
2018-03-28T17:33:55.538Z,8.55
2018-03-28T17:36:23.146Z,7.30
2018-03-28T17:38:50.647Z,7.62
2018-03-28T17:41:18.903Z,7.18
2018-03-28T17:43:46.398Z,10.90
2018-03-28T17:46:14.657Z,8.15
2018-03-28T17:48:42.171Z,6.55
2018-03-28T17:51:09.698Z,6.32
2018-03-28T17:53:37.956Z,6.68
2018-03-28T17:56:06.216Z,6.00
2018-03-28T17:58:33.856Z,7.65
2018-03-28T18:01:01.380Z,7.45
2018-03-28T18:03:29.635Z,6.90
2018-03-28T18:05:57.146Z,7.00
2018-03-28T18:08:24.648Z,11.77
2018-03-28T18:10:52.147Z,42.13
2018-03-28T18:13:19.660Z,31.17
2018-03-28T18:15:47.175Z,13.70
2018-03-28T18:18:14.835Z,34.42
2018-03-28T18:20:42.359Z,123.20
2018-03-28T18:23:10.619Z,123.05
2018-03-28T18:25:38.126Z,27.30
2018-03-28T18:28:05.685Z,9.25
2018-03-28T18:30:33.188Z,6.50
2018-03-28T18:33:00.698Z,7.70
2018-03-28T18:35:28.187Z,6.20
2018-03-28T18:37:55.680Z,6.82
2018-03-28T18:40:23.967Z,10.55
2018-03-28T18:42:52.235Z,9.07
2018-03-28T18:45:20.495Z,8.25
2018-03-28T18:47:48.011Z,8.43
2018-03-28T18:50:15.516Z,7.43
2018-03-28T18:52:43.023Z,7.50
2018-03-28T18:55:10.520Z,8.60
2018-03-28T18:57:38.023Z,8.10
2018-03-28T19:00:05.600Z,7.57
2018-03-28T19:02:33.095Z,7.55
2018-03-28T19:05:00.607Z,8.23
2018-03-28T19:07:28.155Z,8.57
2018-03-28T19:09:56.460Z,7.85
2018-03-28T19:12:24.730Z,7.72
2018-03-28T19:14:52.240Z,9.98
2018-03-28T19:17:19.743Z,12.48
2018-03-28T19:19:47.254Z,9.77
2018-03-28T19:22:14.744Z,8.90
2018-03-28T19:24:42.235Z,9.90
2018-03-28T19:27:09.731Z,11.25
2018-03-28T19:29:38.027Z,10.45
2018-03-28T19:32:06.285Z,12.20
2018-03-28T19:34:33.789Z,11.02
2018-03-28T19:37:01.303Z,12.10
2018-03-28T19:39:28.795Z,11.27
2018-03-28T19:41:56.361Z,11.23
2018-03-28T19:44:23.838Z,12.73
2018-03-28T19:46:51.351Z,13.70
2018-03-28T19:49:19.639Z,16.50
2018-03-28T19:51:47.919Z,13.38
2018-03-28T19:54:15.470Z,13.38
2018-03-28T19:56:42.990Z,13.62
2018-03-28T19:59:10.487Z,13.18
2018-03-28T20:01:38.754Z,13.27
2018-03-28T20:04:07.019Z,15.60
2018-03-28T20:06:35.310Z,13.88
2018-03-28T20:09:03.579Z,14.23
2018-03-28T20:11:31.844Z,48.67
2018-03-28T20:13:59.463Z,48.90
2018-03-28T20:16:26.975Z,47.33
2018-03-28T20:18:55.243Z,23.27
2018-03-28T20:21:22.748Z,15.80
2018-03-28T20:23:50.251Z,15.93
2018-03-28T20:26:17.759Z,17.20
2018-03-28T20:28:45.329Z,19.17
2018-03-28T20:31:12.835Z,24.55
2018-03-28T20:33:40.340Z,15.90
2018-03-28T20:36:07.827Z,16.48
2018-03-28T20:38:35.323Z,16.83
2018-03-28T20:41:03.583Z,17.05
2018-03-28T20:43:31.079Z,17.42
2018-03-28T20:45:58.582Z,16.87
2018-03-28T20:48:26.081Z,20.02
2018-03-28T20:50:54.360Z,17.73
2018-03-28T20:53:22.623Z,19.85
2018-03-28T20:55:50.899Z,17.80
2018-03-28T20:58:19.171Z,16.80
2018-03-28T21:00:46.673Z,19.62
2018-03-28T21:03:14.186Z,18.02
2018-03-28T21:05:42.420Z,18.12
2018-03-28T21:08:09.915Z,20.00
2018-03-28T21:10:37.415Z,18.80
2018-03-28T21:13:04.910Z,18.12
2018-03-28T21:15:32.407Z,17.85
2018-03-28T21:18:00.679Z,17.85
2018-03-28T21:20:28.952Z,21.85
2018-03-28T21:22:57.370Z,19.52
2018-03-28T21:25:24.870Z,20.58
2018-03-28T21:27:52.487Z,17.40
2018-03-28T21:30:19.982Z,17.20
2018-03-28T21:32:47.475Z,17.75
2018-03-28T21:35:15.730Z,17.30
2018-03-28T21:37:43.248Z,16.67
2018-03-28T21:40:10.744Z,16.12
2018-03-28T21:42:39.748Z,16.70
2018-03-28T21:45:07.248Z,16.15
2018-03-28T21:47:34.767Z,16.15
2018-03-28T21:50:02.255Z,14.60
2018-03-28T21:52:29.747Z,19.80
2018-03-28T21:54:57.249Z,22.42
2018-03-28T21:57:25.545Z,18.85
2018-03-28T21:59:53.806Z,18.52
2018-03-28T22:02:22.071Z,18.23
2018-03-28T22:04:49.595Z,18.75
2018-03-28T22:07:17.087Z,19.20
2018-03-28T22:09:45.377Z,20.23
2018-03-28T22:12:13.639Z,20.15
2018-03-28T22:14:41.153Z,19.42
2018-03-28T22:17:08.648Z,19.08
2018-03-28T22:19:36.157Z,19.25
2018-03-28T22:22:03.655Z,17.87
2018-03-28T22:24:31.159Z,20.35
2018-03-28T22:26:58.667Z,20.45
2018-03-28T22:29:26.179Z,20.37
2018-03-28T22:31:53.687Z,21.02
2018-03-28T22:34:21.195Z,22.40
2018-03-28T22:36:48.699Z,19.15
2018-03-28T22:39:16.196Z,19.95
2018-03-28T22:41:44.475Z,16.75
2018-03-28T22:44:12.740Z,17.67
2018-03-28T22:46:41.049Z,19.23
2018-03-28T22:49:08.557Z,17.48
2018-03-28T22:51:36.052Z,17.30
2018-03-28T22:54:04.316Z,18.65
2018-03-28T22:56:32.600Z,17.67
2018-03-28T22:59:00.151Z,18.83
2018-03-28T23:01:28.406Z,19.15
2018-03-28T23:03:55.924Z,19.02
2018-03-28T23:06:23.435Z,19.10
2018-03-28T23:08:51.699Z,17.75
2018-03-28T23:11:19.196Z,18.58
2018-03-28T23:13:46.695Z,17.58
2018-03-28T23:16:14.196Z,19.62
2018-03-28T23:18:42.483Z,18.00
2018-03-28T23:21:10.035Z,16.27
2018-03-28T23:23:38.299Z,17.90
2018-03-28T23:26:06.578Z,18.02
2018-03-28T23:28:34.846Z,18.55
2018-03-28T23:31:03.858Z,17.60
2018-03-28T23:33:32.131Z,18.50
2018-03-28T23:36:00.395Z,16.17
2018-03-28T23:38:27.894Z,15.35
2018-03-28T23:40:55.391Z,17.12
2018-03-28T23:43:22.879Z,24.60
2018-03-28T23:45:51.139Z,19.98
2018-03-28T23:48:18.647Z,22.73
2018-03-28T23:50:46.139Z,16.95
2018-03-28T23:53:13.635Z,14.87
2018-03-28T23:55:41.899Z,15.02
2018-03-28T23:58:09.403Z,16.50
